NCAR-RAP Real-Time Weather Data

Output produced by METARs form (12 May 2021  10:26 UTC)
found at http://weather.rap.ucar.edu/surface/
 
KVSF 120954Z AUTO VRB03KT 10SM BKN050 OVC075 07/02 A3002 RMK AO2 SLP167 T00670017
KVSF 120854Z AUTO 30005KT 10SM BKN075 OVC095 06/01 A2999 RMK AO2 RAB20E43 SLP159 P0000 60000 T00610011 53008
KVSF 120834Z AUTO VRB04G16KT 10SM -RA FEW029 SCT047 OVC090 06/01 A2998 RMK AO2 RAB20 P0000 T00610011
KVSF 120826Z AUTO VRB05KT 10SM -RA BKN029 BKN047 OVC100 07/01 A2998 RMK AO2 RAB20 P0000 T00670006
KVSF 120754Z AUTO 27007KT 10SM OVC032 07/00 A2997 RMK AO2 SLP151 T00670000
KVSF 120654Z AUTO 00000KT 10SM FEW035 SCT085 07/M01 A2996 RMK AO2 SLP147 T00721006
KVSF 120554Z AUTO 25005KT 10SM BKN044 BKN055 07/M02 A2997 RMK AO2 SLP151 T00721017 10106 20067 58003
KVSF 120454Z AUTO 00000KT 10SM SCT055 07/M02 A2998 RMK AO2 SLP155 T00671017 401500028
KVSF 120354Z AUTO 26006G16KT 10SM FEW050 SCT120 08/M04 A2998 RMK AO2 SLP153 T00781039
KVSF 120254Z AUTO 25005KT 10SM SCT120 08/M04 A2998 RMK AO2 SLP154 T00831044 51014
KVSF 120154Z AUTO 27006KT 10SM CLR 08/M06 A2998 RMK AO2 SLP153 T00831056
KVSF 120054Z AUTO 27008KT 10SM CLR 10/M07 A2995 RMK AO2 SLP145 T01001072
KVSF 112354Z AUTO 24005G14KT 10SM BKN090 11/M07 A2994 RMK AO2 SLP140 T01111067 10150 20111 52010
KVSF 112254Z AUTO 27016G24KT 10SM FEW090 12/M08 A2992 RMK AO2 SLP136 T01221083
KVSF 112154Z AUTO 27016G25KT 10SM SCT100 13/M08 A2992 RMK AO2 SLP135 T01331083
KVSF 112054Z AUTO 25017G26KT 10SM BKN095 BKN110 14/M07 A2991 RMK AO2 PK WND 28026/2047 SLP130 T01391067 55008
KVSF 111954Z AUTO 28014G21KT 10SM BKN090 13/M07 A2990 RMK AO2 PK WND 24027/1940 SLP130 T01331072
KVSF 111854Z AUTO 28014G19KT 10SM BKN090 14/M06 A2991 RMK AO2 SLP132 T01441056